createdAt,value
2023-04-30T00:00:56.734Z,99865.13
2023-04-30T00:03:59.120Z,99868.22
2023-04-30T00:07:01.359Z,99873.16
2023-04-30T00:10:05.550Z,99873.59
2023-04-30T00:13:08.558Z,99877.66
2023-04-30T00:16:11.370Z,99879.78
2023-04-30T00:19:13.467Z,99877.00
2023-04-30T00:22:16.150Z,99872.37
2023-04-30T00:25:18.126Z,99870.91
2023-04-30T00:28:20.123Z,99879.28
2023-04-30T00:31:22.370Z,99877.28
2023-04-30T00:34:24.397Z,99873.38
2023-04-30T00:37:26.366Z,99866.94
2023-04-30T00:40:28.549Z,99862.38
2023-04-30T00:43:30.647Z,99866.06
2023-04-30T00:46:32.611Z,99873.50
2023-04-30T00:49:34.638Z,99883.12
2023-04-30T00:52:36.614Z,99878.91
2023-04-30T00:55:40.676Z,99884.41
2023-04-30T00:58:43.246Z,99887.25
2023-04-30T01:01:45.463Z,99876.88
2023-04-30T01:04:47.616Z,99876.16
2023-04-30T01:07:50.876Z,99879.84
2023-04-30T01:11:19.078Z,99883.25
2023-04-30T01:14:29.062Z,99875.75
2023-04-30T01:17:58.373Z,99881.25
2023-04-30T01:21:05.801Z,99881.66
2023-04-30T01:24:35.176Z,99884.59
2023-04-30T01:28:03.914Z,99889.16
2023-04-30T01:31:14.362Z,99894.44
2023-04-30T01:34:16.488Z,99889.75
2023-04-30T01:37:30.457Z,99894.22
2023-04-30T01:40:58.006Z,99897.97
2023-04-30T01:44:03.410Z,99895.41
2023-04-30T01:47:07.669Z,99894.00
2023-04-30T01:50:44.191Z,99902.34
2023-04-30T01:53:47.235Z,99902.87
2023-04-30T01:57:02.761Z,99911.59
2023-04-30T02:00:05.933Z,99898.53
2023-04-30T02:03:08.400Z,99912.41
2023-04-30T02:06:10.440Z,99908.94
2023-04-30T02:09:12.617Z,99915.41
2023-04-30T02:12:15.000Z,99921.53
2023-04-30T02:15:17.102Z,99922.63
2023-04-30T02:18:19.139Z,99913.72
2023-04-30T02:21:21.329Z,99923.56
2023-04-30T02:24:23.346Z,99926.22
2023-04-30T02:27:26.346Z,99922.63
2023-04-30T02:30:28.937Z,99921.66
2023-04-30T02:33:31.016Z,99930.81
2023-04-30T02:36:36.352Z,99931.03
2023-04-30T02:39:38.609Z,99931.34
2023-04-30T02:42:40.728Z,99943.75
2023-04-30T02:45:42.995Z,99943.00
2023-04-30T02:48:45.322Z,99942.78
2023-04-30T02:51:47.451Z,99949.06
2023-04-30T02:54:49.638Z,99949.91
2023-04-30T02:57:51.625Z,99953.63
2023-04-30T03:00:53.750Z,99950.97
2023-04-30T03:03:55.862Z,99955.44
2023-04-30T03:06:57.750Z,99960.03
2023-04-30T03:09:59.813Z,99958.44
2023-04-30T03:13:01.813Z,99969.13
2023-04-30T03:16:07.051Z,99961.16
2023-04-30T03:19:09.196Z,99959.62
2023-04-30T03:22:11.408Z,99967.88
2023-04-30T03:25:14.408Z,99966.72
2023-04-30T03:28:16.334Z,99972.00
2023-04-30T03:31:18.391Z,99967.97
2023-04-30T03:34:20.478Z,99979.84
2023-04-30T03:37:22.461Z,99982.09
2023-04-30T03:40:24.439Z,99978.06
2023-04-30T03:43:26.452Z,99986.22
2023-04-30T03:46:28.412Z,99984.75
2023-04-30T03:49:31.524Z,99997.12
2023-04-30T03:52:33.862Z,99993.63
2023-04-30T03:55:36.085Z,99999.78
2023-04-30T03:58:38.290Z,99997.03
2023-04-30T04:01:40.316Z,99997.03
2023-04-30T04:04:42.734Z,99997.03
2023-04-30T04:07:44.731Z,99999.66
2023-04-30T04:10:46.878Z,100009.97
2023-04-30T04:13:48.892Z,100010.69
2023-04-30T04:16:50.804Z,100009.44
2023-04-30T04:19:53.008Z,100019.69
2023-04-30T04:22:55.622Z,100025.41
2023-04-30T04:25:57.722Z,100028.72
2023-04-30T04:28:59.755Z,100034.69
2023-04-30T04:32:03.005Z,100036.50
2023-04-30T04:35:05.487Z,100035.41
2023-04-30T04:38:07.640Z,100044.34
2023-04-30T04:41:09.564Z,100049.63
2023-04-30T04:44:11.717Z,100047.94
2023-04-30T04:47:13.653Z,100061.91
2023-04-30T04:50:16.006Z,100057.59
2023-04-30T04:53:17.891Z,100064.91
2023-04-30T04:56:19.894Z,100067.81
2023-04-30T04:59:22.216Z,100079.09
2023-04-30T05:02:24.798Z,100081.81
2023-04-30T05:05:26.885Z,100080.84
2023-04-30T05:08:28.955Z,100089.97
2023-04-30T05:11:30.862Z,100095.28
2023-04-30T05:14:32.978Z,100095.28
2023-04-30T05:17:34.965Z,100099.62
2023-04-30T05:20:37.036Z,100115.84
2023-04-30T05:23:39.037Z,100112.25
2023-04-30T05:26:41.008Z,100115.53
2023-04-30T05:29:42.961Z,100114.69
2023-04-30T05:32:50.843Z,100126.50
2023-04-30T05:35:52.893Z,100128.09
2023-04-30T05:38:55.361Z,100130.12
2023-04-30T05:41:57.470Z,100135.94
2023-04-30T05:44:59.425Z,100132.78
2023-04-30T05:48:02.213Z,100136.56
2023-04-30T05:51:05.744Z,100136.69
2023-04-30T05:54:07.768Z,100129.78
2023-04-30T05:57:09.706Z,100138.34
2023-04-30T06:00:12.628Z,100133.38
2023-04-30T06:03:14.843Z,100129.91
2023-04-30T06:06:17.058Z,100143.38
2023-04-30T06:09:19.117Z,100145.59
2023-04-30T06:12:21.517Z,100148.75
2023-04-30T06:15:23.840Z,100143.13
2023-04-30T06:18:25.817Z,100143.06
2023-04-30T06:21:28.190Z,100139.13
2023-04-30T06:24:30.846Z,100137.22
2023-04-30T06:27:32.742Z,100138.91
2023-04-30T06:30:35.060Z,100136.72
2023-04-30T06:33:36.945Z,100126.53
2023-04-30T06:36:38.899Z,100123.41
2023-04-30T06:39:41.321Z,100118.91
2023-04-30T06:42:44.148Z,100125.88
2023-04-30T06:45:47.062Z,100117.16
2023-04-30T06:48:49.035Z,100128.16
2023-04-30T06:51:51.117Z,100134.31
2023-04-30T06:54:53.233Z,100123.78
2023-04-30T06:57:55.206Z,100123.06
2023-04-30T07:00:58.024Z,100131.75
2023-04-30T07:04:01.615Z,100117.59
2023-04-30T07:07:03.675Z,100120.62
2023-04-30T07:10:06.534Z,100117.00
2023-04-30T07:13:08.758Z,100124.03
2023-04-30T07:16:11.224Z,100127.97
2023-04-30T07:19:13.309Z,100129.53
2023-04-30T07:22:15.428Z,100134.28
2023-04-30T07:25:17.933Z,100135.34
2023-04-30T07:28:20.506Z,100140.94
2023-04-30T07:31:22.676Z,100148.91
2023-04-30T07:34:25.349Z,100155.78
2023-04-30T07:37:27.300Z,100151.34
2023-04-30T07:43:37.343Z,100156.97
2023-04-30T07:46:40.176Z,100159.72
2023-04-30T07:49:42.374Z,100156.19
2023-04-30T07:52:44.524Z,100171.09
2023-04-30T07:55:46.663Z,100167.03
2023-04-30T07:58:48.780Z,100164.44
2023-04-30T08:01:54.085Z,100169.22
2023-04-30T08:04:56.996Z,100168.72
2023-04-30T08:07:59.052Z,100165.69
2023-04-30T08:11:01.134Z,100176.47
2023-04-30T08:14:03.455Z,100183.91
2023-04-30T08:17:05.503Z,100185.50
2023-04-30T08:20:08.212Z,100187.28
2023-04-30T08:23:10.839Z,100188.63
2023-04-30T08:26:13.035Z,100192.28
2023-04-30T08:29:15.064Z,100191.12
2023-04-30T08:32:19.362Z,100189.69
2023-04-30T08:35:21.622Z,100185.41
2023-04-30T08:38:23.531Z,100183.69
2023-04-30T08:41:34.518Z,100178.03
2023-04-30T08:44:39.862Z,100186.81
2023-04-30T08:47:42.206Z,100177.00
2023-04-30T08:50:44.309Z,100179.47
2023-04-30T08:53:48.192Z,100180.56
2023-04-30T08:56:50.558Z,100189.47
2023-04-30T08:59:54.751Z,100190.69
2023-04-30T09:02:57.126Z,100188.00
2023-04-30T09:05:59.459Z,100184.69
2023-04-30T09:09:11.535Z,100177.22
2023-04-30T09:12:19.538Z,100183.22
2023-04-30T09:15:22.377Z,100183.72
2023-04-30T09:18:24.423Z,100186.44
2023-04-30T09:21:37.578Z,100193.31
2023-04-30T09:24:49.845Z,100198.69
2023-04-30T09:28:10.529Z,100190.81
2023-04-30T09:31:20.979Z,100197.47
2023-04-30T09:34:34.667Z,100192.09
2023-04-30T09:37:38.130Z,100198.00
2023-04-30T09:40:42.631Z,100191.69
2023-04-30T09:43:46.049Z,100203.97
2023-04-30T09:46:51.120Z,100201.84
2023-04-30T09:49:53.570Z,100197.25
2023-04-30T09:53:06.782Z,100190.84
2023-04-30T09:56:11.769Z,100186.28
2023-04-30T09:59:14.949Z,100178.22
2023-04-30T10:02:18.367Z,100182.09
2023-04-30T10:05:20.818Z,100184.56
2023-04-30T10:08:34.188Z,100173.66
2023-04-30T10:11:38.851Z,100191.84
2023-04-30T10:14:47.954Z,100178.81
2023-04-30T10:17:54.801Z,100182.97
2023-04-30T10:20:59.364Z,100174.84
2023-04-30T10:24:01.781Z,100173.88
2023-04-30T10:27:03.900Z,100173.50
2023-04-30T10:30:11.587Z,100168.09
2023-04-30T10:33:31.883Z,100162.19
2023-04-30T10:36:44.902Z,100162.66
2023-04-30T10:39:47.474Z,100156.66
2023-04-30T10:42:50.125Z,100154.28
2023-04-30T10:45:52.351Z,100150.88
2023-04-30T10:48:55.728Z,100163.22
2023-04-30T10:52:00.646Z,100143.75
2023-04-30T10:55:07.540Z,100149.03
2023-04-30T10:58:29.935Z,100151.38
2023-04-30T11:01:32.719Z,100132.00
2023-04-30T11:05:15.139Z,100137.44
2023-04-30T11:08:17.255Z,100139.09
2023-04-30T11:11:22.947Z,100143.88
2023-04-30T11:14:25.109Z,100149.09
2023-04-30T11:17:28.380Z,100133.59
2023-04-30T11:20:30.613Z,100136.31
2023-04-30T11:27:05.990Z,100138.66
2023-04-30T11:30:16.533Z,100121.00
2023-04-30T11:33:19.222Z,100133.34
2023-04-30T11:36:22.354Z,100146.88
2023-04-30T11:39:26.816Z,100129.94
2023-04-30T11:42:34.883Z,100130.69
2023-04-30T11:45:39.225Z,100144.56
2023-04-30T11:48:42.526Z,100133.78
2023-04-30T11:51:49.043Z,100129.41
2023-04-30T11:54:51.023Z,100133.97
2023-04-30T11:57:56.009Z,100129.25
2023-04-30T12:01:00.154Z,100127.72
2023-04-30T12:04:04.315Z,100121.50
2023-04-30T12:07:09.005Z,100123.59
2023-04-30T12:10:11.251Z,100121.75
2023-04-30T12:13:16.879Z,100130.19
2023-04-30T12:16:20.077Z,100120.25
2023-04-30T12:19:25.313Z,100112.16
2023-04-30T12:22:28.583Z,100123.09
2023-04-30T12:25:30.969Z,100113.75
2023-04-30T12:28:35.029Z,100115.53
2023-04-30T12:31:39.880Z,100116.81
2023-04-30T12:34:42.524Z,100106.56
2023-04-30T12:37:50.264Z,100102.25
2023-04-30T12:40:52.415Z,100092.47
2023-04-30T12:44:17.217Z,100098.50
2023-04-30T12:47:19.284Z,100080.41
2023-04-30T12:50:22.823Z,100094.72
2023-04-30T12:53:24.924Z,100088.63
2023-04-30T12:56:27.052Z,100077.44
2023-04-30T12:59:30.640Z,100077.22
2023-04-30T13:02:32.767Z,100085.66
2023-04-30T13:05:35.289Z,100068.28
2023-04-30T13:08:49.726Z,100073.66
2023-04-30T13:11:58.819Z,100070.63
2023-04-30T13:15:00.891Z,100061.84
2023-04-30T13:18:03.869Z,100056.81
2023-04-30T13:21:06.420Z,100068.56
2023-04-30T13:24:08.723Z,100065.94
2023-04-30T13:27:11.726Z,100051.66
2023-04-30T13:30:14.725Z,100058.31
2023-04-30T13:33:16.693Z,100048.56
2023-04-30T13:36:19.189Z,100049.72
2023-04-30T13:39:22.029Z,100043.16
2023-04-30T13:42:25.709Z,100044.97
2023-04-30T13:45:27.706Z,100043.56
2023-04-30T13:48:29.744Z,100046.91
2023-04-30T13:51:32.461Z,100044.84
2023-04-30T13:54:34.480Z,100040.56
2023-04-30T13:57:36.772Z,100039.84
2023-04-30T14:00:38.879Z,100040.22
2023-04-30T14:03:41.332Z,100050.16
2023-04-30T14:06:43.675Z,100047.06
2023-04-30T14:09:45.946Z,100047.09
2023-04-30T14:12:48.943Z,100052.12
2023-04-30T14:15:51.888Z,100051.88
2023-04-30T14:18:53.998Z,100050.44
2023-04-30T14:21:56.436Z,100045.13
2023-04-30T14:24:59.712Z,100043.38
2023-04-30T14:28:01.663Z,100046.03
2023-04-30T14:31:03.995Z,100036.59
2023-04-30T14:34:06.155Z,100030.56
2023-04-30T14:37:08.155Z,100030.63
2023-04-30T14:40:10.634Z,100031.91
2023-04-30T14:43:12.807Z,100022.78
2023-04-30T14:46:14.809Z,100031.62
2023-04-30T14:49:17.038Z,100020.69
2023-04-30T14:52:19.970Z,100024.63
2023-04-30T14:55:22.629Z,100027.59
2023-04-30T14:58:25.494Z,100028.53
2023-04-30T15:01:28.679Z,100021.25
2023-04-30T15:04:31.157Z,100011.38
2023-04-30T15:07:33.195Z,100015.12
2023-04-30T15:10:35.493Z,100021.28
2023-04-30T15:13:37.656Z,100012.63
2023-04-30T15:16:40.159Z,100018.34
2023-04-30T15:19:42.080Z,100019.56
2023-04-30T15:22:44.709Z,100026.50
2023-04-30T15:25:47.129Z,100013.63
2023-04-30T15:28:49.376Z,100021.19
2023-04-30T15:31:54.498Z,100023.78
2023-04-30T15:34:56.807Z,100001.75
2023-04-30T15:37:58.685Z,100014.72
2023-04-30T15:41:01.003Z,100017.38
2023-04-30T15:44:02.957Z,100019.81
2023-04-30T15:47:05.257Z,100014.06
2023-04-30T15:50:08.141Z,100007.66
2023-04-30T15:53:10.235Z,100025.31
2023-04-30T15:56:12.143Z,100017.66
2023-04-30T15:59:17.717Z,100023.37
2023-04-30T16:02:22.039Z,100035.03
2023-04-30T16:05:24.154Z,100024.31
2023-04-30T16:08:26.188Z,100022.81
2023-04-30T16:11:28.125Z,100018.59
2023-04-30T16:14:31.225Z,100022.28
2023-04-30T16:17:33.518Z,100016.94
2023-04-30T16:20:37.248Z,100011.59
2023-04-30T16:23:39.442Z,100007.22
2023-04-30T16:26:41.453Z,100001.22
2023-04-30T16:29:43.370Z,100008.31
2023-04-30T16:32:45.433Z,100016.03
2023-04-30T16:35:48.280Z,100005.06
2023-04-30T16:38:50.360Z,100002.38
2023-04-30T16:41:52.255Z,100006.78
2023-04-30T16:44:54.952Z,100005.00
2023-04-30T16:47:57.075Z,100008.22
2023-04-30T16:50:59.436Z,100016.50
2023-04-30T16:54:01.765Z,100015.38
2023-04-30T16:57:04.724Z,100010.78
2023-04-30T17:00:08.825Z,100005.78
2023-04-30T17:03:11.265Z,100008.75
2023-04-30T17:06:14.362Z,100015.53
2023-04-30T17:09:19.941Z,100012.81
2023-04-30T17:12:22.001Z,100019.53
2023-04-30T17:15:24.049Z,100021.81
2023-04-30T17:18:27.543Z,100026.63
2023-04-30T17:21:30.268Z,100019.72
2023-04-30T17:24:32.537Z,100028.69
2023-04-30T17:27:34.594Z,100030.37
2023-04-30T17:30:37.302Z,100023.06
2023-04-30T17:33:41.318Z,100037.19
2023-04-30T17:36:44.737Z,100035.47
2023-04-30T17:39:47.046Z,100043.50
2023-04-30T17:42:51.627Z,100042.19
2023-04-30T17:45:54.160Z,100043.13
2023-04-30T17:49:00.766Z,100041.38
2023-04-30T17:52:04.278Z,100049.09
2023-04-30T17:55:10.169Z,100051.16
2023-04-30T17:58:12.391Z,100049.41
2023-04-30T18:01:15.029Z,100059.53
2023-04-30T18:04:19.869Z,100057.19
2023-04-30T18:07:22.112Z,100060.75
2023-04-30T18:10:24.257Z,100058.47
2023-04-30T18:13:29.740Z,100062.00
2023-04-30T18:16:33.877Z,100054.78
2023-04-30T18:19:43.253Z,100070.75
2023-04-30T18:22:45.458Z,100072.72
2023-04-30T18:25:48.520Z,100078.03
2023-04-30T18:28:52.048Z,100078.28
2023-04-30T18:31:54.650Z,100080.13
2023-04-30T18:34:56.944Z,100086.03
2023-04-30T18:37:59.338Z,100085.06
2023-04-30T18:41:02.865Z,100097.25
2023-04-30T18:44:05.083Z,100101.00
2023-04-30T18:47:07.574Z,100101.00
2023-04-30T18:50:13.611Z,100102.47
2023-04-30T18:53:18.261Z,100105.72
2023-04-30T18:56:22.177Z,100113.91
2023-04-30T18:59:26.617Z,100110.16
2023-04-30T19:02:29.806Z,100112.19
2023-04-30T19:05:36.426Z,100113.75
2023-04-30T19:08:39.363Z,100118.06
2023-04-30T19:11:42.257Z,100122.34
2023-04-30T19:14:44.876Z,100125.94
2023-04-30T19:17:47.262Z,100123.19
2023-04-30T19:21:01.437Z,100126.25
2023-04-30T19:24:04.347Z,100125.09
2023-04-30T19:27:08.025Z,100125.88
2023-04-30T19:30:13.391Z,100129.22
2023-04-30T19:33:15.797Z,100133.22
2023-04-30T19:36:18.710Z,100129.53
2023-04-30T19:39:21.923Z,100124.66
2023-04-30T19:42:24.678Z,100129.34
2023-04-30T19:45:28.183Z,100128.72
2023-04-30T19:48:32.711Z,100128.94
2023-04-30T19:51:35.657Z,100128.53
2023-04-30T19:54:38.906Z,100126.94
2023-04-30T19:57:41.764Z,100130.84
2023-04-30T20:00:46.498Z,100132.34
2023-04-30T20:03:49.714Z,100130.00
2023-04-30T20:06:56.963Z,100131.06
2023-04-30T20:09:59.882Z,100131.47
2023-04-30T20:13:03.273Z,100129.06
2023-04-30T20:16:06.211Z,100133.81
2023-04-30T20:19:09.942Z,100139.34
2023-04-30T20:22:13.868Z,100138.78
2023-04-30T20:25:16.597Z,100135.69
2023-04-30T20:28:19.844Z,100130.16
2023-04-30T20:31:22.832Z,100137.91
2023-04-30T20:34:27.430Z,100135.44
2023-04-30T20:37:30.588Z,100138.31
2023-04-30T20:40:33.794Z,100145.53
2023-04-30T20:43:36.523Z,100145.19
2023-04-30T20:46:39.321Z,100154.16
2023-04-30T20:49:43.592Z,100150.25
2023-04-30T20:52:45.952Z,100151.41
2023-04-30T20:55:47.948Z,100149.78
2023-04-30T20:58:49.974Z,100145.53
2023-04-30T21:01:51.984Z,100147.44
2023-04-30T21:04:54.014Z,100144.66
2023-04-30T21:08:01.156Z,100159.06
2023-04-30T21:11:04.408Z,100156.16
2023-04-30T21:14:06.512Z,100156.63
2023-04-30T21:17:08.642Z,100170.16
2023-04-30T21:20:11.514Z,100169.78
2023-04-30T21:23:14.713Z,100163.19
2023-04-30T21:26:16.664Z,100159.97
2023-04-30T21:29:18.577Z,100167.47
2023-04-30T21:32:20.697Z,100164.91
2023-04-30T21:35:22.676Z,100158.78
2023-04-30T21:38:24.585Z,100158.87
2023-04-30T21:41:28.079Z,100163.81
2023-04-30T21:44:32.821Z,100168.44
2023-04-30T21:47:34.804Z,100163.53
2023-04-30T21:50:38.495Z,100161.63
2023-04-30T21:53:42.487Z,100161.81
2023-04-30T21:56:44.533Z,100161.53
2023-04-30T21:59:46.541Z,100167.28
2023-04-30T22:02:49.401Z,100174.66
2023-04-30T22:05:51.937Z,100169.88
2023-04-30T22:08:53.928Z,100171.69
2023-04-30T22:11:56.166Z,100169.16
2023-04-30T22:14:58.619Z,100173.75
2023-04-30T22:18:00.720Z,100170.72
2023-04-30T22:21:02.853Z,100172.78
2023-04-30T22:24:05.530Z,100169.66
2023-04-30T22:27:08.607Z,100173.53
2023-04-30T22:30:12.004Z,100169.63
2023-04-30T22:33:14.331Z,100178.69
2023-04-30T22:36:16.247Z,100171.00
2023-04-30T22:39:18.675Z,100175.72
2023-04-30T22:42:20.941Z,100173.09
2023-04-30T22:45:23.078Z,100176.09
2023-04-30T22:48:26.936Z,100176.25
2023-04-30T22:51:28.956Z,100177.34
2023-04-30T22:54:31.626Z,100177.53
2023-04-30T22:57:33.526Z,100173.47
2023-04-30T23:00:35.985Z,100165.91
2023-04-30T23:03:38.793Z,100165.22
2023-04-30T23:06:42.938Z,100168.72
2023-04-30T23:09:45.347Z,100167.09
2023-04-30T23:12:48.081Z,100161.88
2023-04-30T23:15:50.123Z,100153.13
2023-04-30T23:18:52.359Z,100161.81
2023-04-30T23:21:55.118Z,100159.25
2023-04-30T23:24:57.366Z,100161.03
2023-04-30T23:28:00.276Z,100159.44
2023-04-30T23:31:02.463Z,100160.62
2023-04-30T23:34:04.682Z,100162.59
2023-04-30T23:37:06.759Z,100162.09
2023-04-30T23:40:09.850Z,100154.44
2023-04-30T23:43:12.031Z,100157.91
2023-04-30T23:46:16.061Z,100160.88
2023-04-30T23:49:18.440Z,100159.37
2023-04-30T23:52:20.626Z,100153.47
2023-04-30T23:55:22.566Z,100157.06
2023-04-30T23:58:25.325Z,100152.47
